sensor_id;sensor_type;location;lat;lon;timestamp;P1;durP1;ratioP1;P2;durP2;ratioP2
69126;SDS011;56688;50.234;19.292;2022-08-19T00:01:08;13.80;;;9.90;;
69126;SDS011;56688;50.234;19.292;2022-08-19T00:03:35;9.40;;;7.80;;
69126;SDS011;56688;50.234;19.292;2022-08-19T00:06:02;12.40;;;9.20;;
69126;SDS011;56688;50.234;19.292;2022-08-19T00:08:30;12.00;;;9.60;;
69126;SDS011;56688;50.234;19.292;2022-08-19T00:10:57;13.00;;;9.40;;
69126;SDS011;56688;50.234;19.292;2022-08-19T00:13:24;12.70;;;8.20;;
69126;SDS011;56688;50.234;19.292;2022-08-19T00:15:51;11.50;;;10.00;;
69126;SDS011;56688;50.234;19.292;2022-08-19T00:18:18;13.30;;;9.40;;
69126;SDS011;56688;50.234;19.292;2022-08-19T00:20:45;11.40;;;10.20;;
69126;SDS011;56688;50.234;19.292;2022-08-19T00:23:40;12.30;;;9.30;;
69126;SDS011;56688;50.234;19.292;2022-08-19T00:26:34;11.80;;;9.60;;
69126;SDS011;56688;50.234;19.292;2022-08-19T00:29:02;10.40;;;8.10;;
69126;SDS011;56688;50.234;19.292;2022-08-19T00:31:32;14.20;;;9.60;;
69126;SDS011;56688;50.234;19.292;2022-08-19T00:34:00;15.40;;;9.80;;
69126;SDS011;56688;50.234;19.292;2022-08-19T00:36:27;14.20;;;10.90;;
69126;SDS011;56688;50.234;19.292;2022-08-19T00:38:55;11.70;;;10.30;;
69126;SDS011;56688;50.234;19.292;2022-08-19T00:41:23;12.50;;;10.90;;
69126;SDS011;56688;50.234;19.292;2022-08-19T00:46:34;12.90;;;9.60;;
69126;SDS011;56688;50.234;19.292;2022-08-19T00:49:10;11.90;;;9.50;;
69126;SDS011;56688;50.234;19.292;2022-08-19T00:51:42;14.60;;;10.30;;
69126;SDS011;56688;50.234;19.292;2022-08-19T00:54:15;12.70;;;9.40;;
69126;SDS011;56688;50.234;19.292;2022-08-19T00:56:53;14.50;;;10.10;;
69126;SDS011;56688;50.234;19.292;2022-08-19T00:59:22;12.10;;;9.50;;
69126;SDS011;56688;50.234;19.292;2022-08-19T01:02:11;11.70;;;8.90;;
69126;SDS011;56688;50.234;19.292;2022-08-19T01:04:39;11.90;;;9.80;;
69126;SDS011;56688;50.234;19.292;2022-08-19T01:07:06;13.80;;;10.20;;
69126;SDS011;56688;50.234;19.292;2022-08-19T01:09:40;16.30;;;10.80;;
69126;SDS011;56688;50.234;19.292;2022-08-19T01:12:07;13.00;;;10.30;;
69126;SDS011;56688;50.234;19.292;2022-08-19T01:14:35;13.20;;;10.30;;
69126;SDS011;56688;50.234;19.292;2022-08-19T01:17:06;14.30;;;10.60;;
69126;SDS011;56688;50.234;19.292;2022-08-19T01:19:37;10.80;;;9.40;;
69126;SDS011;56688;50.234;19.292;2022-08-19T01:24:59;16.20;;;11.20;;
69126;SDS011;56688;50.234;19.292;2022-08-19T01:27:26;9.60;;;7.60;;
69126;SDS011;56688;50.234;19.292;2022-08-19T01:30:00;14.30;;;9.70;;
69126;SDS011;56688;50.234;19.292;2022-08-19T01:32:27;14.90;;;9.90;;
69126;SDS011;56688;50.234;19.292;2022-08-19T01:35:00;12.00;;;10.20;;
69126;SDS011;56688;50.234;19.292;2022-08-19T01:37:29;11.70;;;10.40;;
69126;SDS011;56688;50.234;19.292;2022-08-19T01:39:57;9.70;;;8.00;;
69126;SDS011;56688;50.234;19.292;2022-08-19T01:42:24;14.50;;;10.80;;
69126;SDS011;56688;50.234;19.292;2022-08-19T01:44:56;13.00;;;10.30;;
69126;SDS011;56688;50.234;19.292;2022-08-19T01:47:23;13.90;;;10.30;;
69126;SDS011;56688;50.234;19.292;2022-08-19T01:49:50;13.70;;;10.90;;
69126;SDS011;56688;50.234;19.292;2022-08-19T01:52:17;15.50;;;10.80;;
69126;SDS011;56688;50.234;19.292;2022-08-19T01:54:45;14.30;;;10.70;;
69126;SDS011;56688;50.234;19.292;2022-08-19T01:57:12;13.50;;;11.20;;
69126;SDS011;56688;50.234;19.292;2022-08-19T01:59:41;14.00;;;9.50;;
69126;SDS011;56688;50.234;19.292;2022-08-19T02:02:10;14.30;;;10.80;;
69126;SDS011;56688;50.234;19.292;2022-08-19T02:09:09;13.00;;;11.60;;
69126;SDS011;56688;50.234;19.292;2022-08-19T02:11:37;15.50;;;11.10;;
69126;SDS011;56688;50.234;19.292;2022-08-19T02:14:08;14.20;;;10.70;;
69126;SDS011;56688;50.234;19.292;2022-08-19T02:16:35;11.80;;;9.70;;
69126;SDS011;56688;50.234;19.292;2022-08-19T02:19:03;14.40;;;10.50;;
69126;SDS011;56688;50.234;19.292;2022-08-19T02:21:32;15.10;;;11.60;;
69126;SDS011;56688;50.234;19.292;2022-08-19T02:24:00;12.30;;;10.30;;
69126;SDS011;56688;50.234;19.292;2022-08-19T02:26:27;16.10;;;12.00;;
69126;SDS011;56688;50.234;19.292;2022-08-19T02:28:55;11.00;;;8.50;;
69126;SDS011;56688;50.234;19.292;2022-08-19T02:31:23;15.10;;;11.70;;
69126;SDS011;56688;50.234;19.292;2022-08-19T02:33:52;13.00;;;11.40;;
69126;SDS011;56688;50.234;19.292;2022-08-19T02:36:22;12.90;;;11.40;;
69126;SDS011;56688;50.234;19.292;2022-08-19T02:38:52;12.70;;;9.90;;
69126;SDS011;56688;50.234;19.292;2022-08-19T02:41:22;17.00;;;12.00;;
69126;SDS011;56688;50.234;19.292;2022-08-19T02:43:54;13.80;;;9.30;;
69126;SDS011;56688;50.234;19.292;2022-08-19T02:46:46;14.60;;;10.20;;
69126;SDS011;56688;50.234;19.292;2022-08-19T02:49:18;13.10;;;11.00;;
69126;SDS011;56688;50.234;19.292;2022-08-19T02:51:46;14.00;;;10.80;;
69126;SDS011;56688;50.234;19.292;2022-08-19T02:54:14;13.60;;;11.00;;
69126;SDS011;56688;50.234;19.292;2022-08-19T02:56:42;12.40;;;10.80;;
69126;SDS011;56688;50.234;19.292;2022-08-19T02:59:13;15.50;;;11.50;;
69126;SDS011;56688;50.234;19.292;2022-08-19T03:01:56;14.00;;;11.00;;
69126;SDS011;56688;50.234;19.292;2022-08-19T03:04:27;12.80;;;11.00;;
69126;SDS011;56688;50.234;19.292;2022-08-19T03:06:58;15.00;;;12.40;;
69126;SDS011;56688;50.234;19.292;2022-08-19T03:09:37;16.00;;;11.80;;
69126;SDS011;56688;50.234;19.292;2022-08-19T03:12:04;17.10;;;11.40;;
69126;SDS011;56688;50.234;19.292;2022-08-19T03:14:33;13.40;;;11.20;;
69126;SDS011;56688;50.234;19.292;2022-08-19T03:17:00;16.00;;;11.00;;
69126;SDS011;56688;50.234;19.292;2022-08-19T03:19:28;13.90;;;11.10;;
69126;SDS011;56688;50.234;19.292;2022-08-19T03:21:55;15.30;;;11.30;;
69126;SDS011;56688;50.234;19.292;2022-08-19T03:24:22;13.00;;;10.90;;
69126;SDS011;56688;50.234;19.292;2022-08-19T03:26:50;14.00;;;11.00;;
69126;SDS011;56688;50.234;19.292;2022-08-19T03:29:26;15.50;;;12.20;;
69126;SDS011;56688;50.234;19.292;2022-08-19T03:31:56;17.60;;;11.90;;
69126;SDS011;56688;50.234;19.292;2022-08-19T03:34:31;14.30;;;12.20;;
69126;SDS011;56688;50.234;19.292;2022-08-19T03:37:02;12.60;;;11.30;;
69126;SDS011;56688;50.234;19.292;2022-08-19T03:39:32;14.10;;;11.00;;
69126;SDS011;56688;50.234;19.292;2022-08-19T03:42:00;13.80;;;10.00;;
69126;SDS011;56688;50.234;19.292;2022-08-19T03:44:49;14.60;;;9.80;;
69126;SDS011;56688;50.234;19.292;2022-08-19T03:47:16;15.20;;;10.70;;
69126;SDS011;56688;50.234;19.292;2022-08-19T03:49:44;12.70;;;10.80;;
69126;SDS011;56688;50.234;19.292;2022-08-19T03:52:11;17.20;;;11.20;;
69126;SDS011;56688;50.234;19.292;2022-08-19T03:54:38;13.80;;;11.20;;
69126;SDS011;56688;50.234;19.292;2022-08-19T03:57:05;15.60;;;12.00;;
69126;SDS011;56688;50.234;19.292;2022-08-19T03:59:34;15.90;;;12.00;;
69126;SDS011;56688;50.234;19.292;2022-08-19T04:02:05;17.70;;;11.60;;
69126;SDS011;56688;50.234;19.292;2022-08-19T04:04:37;18.90;;;11.10;;
69126;SDS011;56688;50.234;19.292;2022-08-19T04:07:05;13.40;;;9.80;;
69126;SDS011;56688;50.234;19.292;2022-08-19T04:09:34;13.50;;;10.40;;
69126;SDS011;56688;50.234;19.292;2022-08-19T04:12:03;14.10;;;11.90;;
69126;SDS011;56688;50.234;19.292;2022-08-19T04:14:32;15.80;;;11.70;;
69126;SDS011;56688;50.234;19.292;2022-08-19T04:17:01;13.40;;;12.00;;
69126;SDS011;56688;50.234;19.292;2022-08-19T04:19:32;13.70;;;11.10;;
69126;SDS011;56688;50.234;19.292;2022-08-19T04:22:01;13.00;;;10.90;;
69126;SDS011;56688;50.234;19.292;2022-08-19T04:24:29;16.00;;;11.20;;
69126;SDS011;56688;50.234;19.292;2022-08-19T04:26:58;15.80;;;10.80;;
69126;SDS011;56688;50.234;19.292;2022-08-19T04:29:26;15.80;;;10.70;;
69126;SDS011;56688;50.234;19.292;2022-08-19T04:31:55;14.30;;;11.40;;
69126;SDS011;56688;50.234;19.292;2022-08-19T04:34:23;12.90;;;11.50;;
69126;SDS011;56688;50.234;19.292;2022-08-19T04:36:52;15.40;;;12.30;;
69126;SDS011;56688;50.234;19.292;2022-08-19T04:39:22;14.50;;;11.80;;
69126;SDS011;56688;50.234;19.292;2022-08-19T04:42:11;15.80;;;11.60;;
69126;SDS011;56688;50.234;19.292;2022-08-19T04:44:57;15.50;;;11.50;;
69126;SDS011;56688;50.234;19.292;2022-08-19T04:47:25;15.50;;;10.70;;
69126;SDS011;56688;50.234;19.292;2022-08-19T04:50:13;13.90;;;11.00;;
69126;SDS011;56688;50.234;19.292;2022-08-19T04:52:44;14.90;;;11.90;;
69126;SDS011;56688;50.234;19.292;2022-08-19T04:55:11;21.30;;;12.60;;
69126;SDS011;56688;50.234;19.292;2022-08-19T04:57:39;17.20;;;12.40;;
69126;SDS011;56688;50.234;19.292;2022-08-19T05:00:08;15.80;;;11.90;;
69126;SDS011;56688;50.234;19.292;2022-08-19T05:02:37;14.30;;;11.90;;
69126;SDS011;56688;50.234;19.292;2022-08-19T05:05:05;15.70;;;11.20;;
69126;SDS011;56688;50.234;19.292;2022-08-19T05:07:44;14.80;;;11.30;;
69126;SDS011;56688;50.234;19.292;2022-08-19T05:10:11;14.80;;;10.20;;
69126;SDS011;56688;50.234;19.292;2022-08-19T05:12:39;13.70;;;10.60;;
69126;SDS011;56688;50.234;19.292;2022-08-19T05:15:07;14.20;;;10.60;;
69126;SDS011;56688;50.234;19.292;2022-08-19T05:17:35;16.20;;;11.00;;
69126;SDS011;56688;50.234;19.292;2022-08-19T05:20:06;16.80;;;12.10;;
69126;SDS011;56688;50.234;19.292;2022-08-19T05:22:50;17.80;;;11.50;;
69126;SDS011;56688;50.234;19.292;2022-08-19T05:25:20;13.60;;;11.40;;
69126;SDS011;56688;50.234;19.292;2022-08-19T05:27:49;15.80;;;10.50;;
69126;SDS011;56688;50.234;19.292;2022-08-19T05:30:16;15.60;;;10.70;;
69126;SDS011;56688;50.234;19.292;2022-08-19T05:32:59;14.10;;;11.00;;
69126;SDS011;56688;50.234;19.292;2022-08-19T05:35:30;15.00;;;9.90;;
69126;SDS011;56688;50.234;19.292;2022-08-19T05:41:15;15.40;;;9.30;;
69126;SDS011;56688;50.234;19.292;2022-08-19T05:43:57;11.30;;;8.30;;
69126;SDS011;56688;50.234;19.292;2022-08-19T05:46:27;14.40;;;9.10;;
69126;SDS011;56688;50.234;19.292;2022-08-19T05:48:58;10.90;;;8.60;;
69126;SDS011;56688;50.234;19.292;2022-08-19T05:51:26;15.00;;;8.90;;
69126;SDS011;56688;50.234;19.292;2022-08-19T05:53:54;22.30;;;9.60;;
69126;SDS011;56688;50.234;19.292;2022-08-19T05:56:22;12.30;;;7.90;;
69126;SDS011;56688;50.234;19.292;2022-08-19T05:58:49;12.70;;;8.80;;
69126;SDS011;56688;50.234;19.292;2022-08-19T06:01:18;10.90;;;7.60;;
69126;SDS011;56688;50.234;19.292;2022-08-19T06:03:45;10.30;;;7.70;;
69126;SDS011;56688;50.234;19.292;2022-08-19T06:06:14;13.50;;;8.40;;
69126;SDS011;56688;50.234;19.292;2022-08-19T06:08:42;10.70;;;8.60;;
69126;SDS011;56688;50.234;19.292;2022-08-19T06:13:41;10.40;;;7.80;;
69126;SDS011;56688;50.234;19.292;2022-08-19T06:16:11;8.80;;;7.40;;
69126;SDS011;56688;50.234;19.292;2022-08-19T06:18:38;10.80;;;7.70;;
69126;SDS011;56688;50.234;19.292;2022-08-19T06:21:05;9.10;;;7.50;;
69126;SDS011;56688;50.234;19.292;2022-08-19T06:23:32;11.60;;;7.90;;
69126;SDS011;56688;50.234;19.292;2022-08-19T06:26:01;11.70;;;8.30;;
69126;SDS011;56688;50.234;19.292;2022-08-19T06:28:28;10.80;;;8.30;;
69126;SDS011;56688;50.234;19.292;2022-08-19T06:30:55;10.30;;;7.80;;
69126;SDS011;56688;50.234;19.292;2022-08-19T06:33:22;11.80;;;7.10;;
69126;SDS011;56688;50.234;19.292;2022-08-19T06:35:49;8.50;;;7.00;;
69126;SDS011;56688;50.234;19.292;2022-08-19T06:38:16;8.70;;;7.30;;
69126;SDS011;56688;50.234;19.292;2022-08-19T06:40:43;10.80;;;7.20;;
69126;SDS011;56688;50.234;19.292;2022-08-19T06:43:10;10.50;;;7.00;;
69126;SDS011;56688;50.234;19.292;2022-08-19T06:45:39;11.10;;;7.00;;
69126;SDS011;56688;50.234;19.292;2022-08-19T06:48:06;8.40;;;7.50;;
69126;SDS011;56688;50.234;19.292;2022-08-19T06:50:37;8.10;;;7.10;;
69126;SDS011;56688;50.234;19.292;2022-08-19T06:53:06;10.30;;;6.90;;
69126;SDS011;56688;50.234;19.292;2022-08-19T06:55:33;9.50;;;7.00;;
69126;SDS011;56688;50.234;19.292;2022-08-19T06:58:02;10.10;;;7.20;;
69126;SDS011;56688;50.234;19.292;2022-08-19T07:00:30;8.30;;;6.90;;
69126;SDS011;56688;50.234;19.292;2022-08-19T07:02:58;8.10;;;6.40;;
69126;SDS011;56688;50.234;19.292;2022-08-19T07:05:37;8.80;;;6.80;;
69126;SDS011;56688;50.234;19.292;2022-08-19T07:08:11;8.70;;;7.00;;
69126;SDS011;56688;50.234;19.292;2022-08-19T07:10:41;10.30;;;7.00;;
69126;SDS011;56688;50.234;19.292;2022-08-19T07:13:09;8.20;;;6.70;;
69126;SDS011;56688;50.234;19.292;2022-08-19T07:15:38;14.40;;;7.20;;
69126;SDS011;56688;50.234;19.292;2022-08-19T07:18:05;7.80;;;6.70;;
69126;SDS011;56688;50.234;19.292;2022-08-19T07:20:37;10.70;;;7.20;;
69126;SDS011;56688;50.234;19.292;2022-08-19T07:23:07;9.00;;;6.40;;
69126;SDS011;56688;50.234;19.292;2022-08-19T07:25:41;9.00;;;6.90;;
69126;SDS011;56688;50.234;19.292;2022-08-19T07:28:10;10.00;;;6.90;;
69126;SDS011;56688;50.234;19.292;2022-08-19T07:30:49;11.50;;;7.30;;
69126;SDS011;56688;50.234;19.292;2022-08-19T07:33:18;10.50;;;6.60;;
69126;SDS011;56688;50.234;19.292;2022-08-19T07:35:45;8.20;;;6.40;;
69126;SDS011;56688;50.234;19.292;2022-08-19T07:38:13;10.00;;;6.90;;
69126;SDS011;56688;50.234;19.292;2022-08-19T07:40:40;14.20;;;6.20;;
69126;SDS011;56688;50.234;19.292;2022-08-19T07:43:07;8.90;;;6.60;;
69126;SDS011;56688;50.234;19.292;2022-08-19T07:45:39;15.40;;;6.50;;
69126;SDS011;56688;50.234;19.292;2022-08-19T07:48:08;8.70;;;6.30;;
69126;SDS011;56688;50.234;19.292;2022-08-19T07:50:39;9.80;;;6.30;;
69126;SDS011;56688;50.234;19.292;2022-08-19T07:53:07;9.80;;;6.60;;
69126;SDS011;56688;50.234;19.292;2022-08-19T07:55:38;8.50;;;6.70;;
69126;SDS011;56688;50.234;19.292;2022-08-19T08:01:39;12.70;;;6.60;;
69126;SDS011;56688;50.234;19.292;2022-08-19T08:04:08;14.70;;;6.60;;
69126;SDS011;56688;50.234;19.292;2022-08-19T08:07:05;8.60;;;6.40;;
69126;SDS011;56688;50.234;19.292;2022-08-19T08:10:31;7.30;;;6.30;;
69126;SDS011;56688;50.234;19.292;2022-08-19T08:13:24;9.90;;;6.10;;
69126;SDS011;56688;50.234;19.292;2022-08-19T08:16:08;7.70;;;6.40;;
69126;SDS011;56688;50.234;19.292;2022-08-19T08:18:49;9.00;;;6.00;;
69126;SDS011;56688;50.234;19.292;2022-08-19T08:21:19;10.30;;;6.80;;
69126;SDS011;56688;50.234;19.292;2022-08-19T08:23:47;9.20;;;6.20;;
69126;SDS011;56688;50.234;19.292;2022-08-19T08:26:28;10.50;;;6.40;;
69126;SDS011;56688;50.234;19.292;2022-08-19T08:31:40;11.90;;;6.10;;
69126;SDS011;56688;50.234;19.292;2022-08-19T08:34:32;8.30;;;5.20;;
69126;SDS011;56688;50.234;19.292;2022-08-19T08:37:00;10.40;;;6.30;;
69126;SDS011;56688;50.234;19.292;2022-08-19T08:39:27;9.20;;;6.40;;
69126;SDS011;56688;50.234;19.292;2022-08-19T08:44:26;10.50;;;5.70;;
69126;SDS011;56688;50.234;19.292;2022-08-19T08:47:12;10.30;;;5.70;;
69126;SDS011;56688;50.234;19.292;2022-08-19T08:49:53;12.40;;;5.70;;
69126;SDS011;56688;50.234;19.292;2022-08-19T08:52:32;9.60;;;5.40;;
69126;SDS011;56688;50.234;19.292;2022-08-19T08:55:31;10.30;;;4.90;;
69126;SDS011;56688;50.234;19.292;2022-08-19T08:58:31;9.00;;;5.00;;
69126;SDS011;56688;50.234;19.292;2022-08-19T09:01:25;10.70;;;6.80;;
69126;SDS011;56688;50.234;19.292;2022-08-19T09:03:56;11.50;;;4.80;;
69126;SDS011;56688;50.234;19.292;2022-08-19T09:06:35;7.50;;;4.60;;
69126;SDS011;56688;50.234;19.292;2022-08-19T09:09:18;7.90;;;4.30;;
69126;SDS011;56688;50.234;19.292;2022-08-19T09:11:59;10.30;;;4.40;;
69126;SDS011;56688;50.234;19.292;2022-08-19T09:14:57;7.90;;;4.60;;
69126;SDS011;56688;50.234;19.292;2022-08-19T09:18:07;8.50;;;4.30;;
69126;SDS011;56688;50.234;19.292;2022-08-19T09:20:59;8.80;;;4.90;;
69126;SDS011;56688;50.234;19.292;2022-08-19T09:23:29;14.70;;;4.60;;
69126;SDS011;56688;50.234;19.292;2022-08-19T09:26:01;7.10;;;4.20;;
69126;SDS011;56688;50.234;19.292;2022-08-19T09:28:35;11.10;;;4.40;;
69126;SDS011;56688;50.234;19.292;2022-08-19T09:31:04;8.60;;;4.60;;
69126;SDS011;56688;50.234;19.292;2022-08-19T09:33:31;7.70;;;4.30;;
69126;SDS011;56688;50.234;19.292;2022-08-19T09:36:04;10.20;;;4.10;;
69126;SDS011;56688;50.234;19.292;2022-08-19T09:38:35;10.60;;;4.60;;
69126;SDS011;56688;50.234;19.292;2022-08-19T09:41:11;9.20;;;4.50;;
69126;SDS011;56688;50.234;19.292;2022-08-19T09:43:41;10.10;;;5.20;;
69126;SDS011;56688;50.234;19.292;2022-08-19T09:46:13;9.80;;;5.00;;
69126;SDS011;56688;50.234;19.292;2022-08-19T09:48:43;8.00;;;5.00;;
69126;SDS011;56688;50.234;19.292;2022-08-19T09:51:17;8.20;;;4.10;;
69126;SDS011;56688;50.234;19.292;2022-08-19T09:53:49;9.50;;;4.30;;
69126;SDS011;56688;50.234;19.292;2022-08-19T09:56:18;9.20;;;4.80;;
69126;SDS011;56688;50.234;19.292;2022-08-19T09:58:49;9.50;;;4.60;;
69126;SDS011;56688;50.234;19.292;2022-08-19T10:01:18;10.50;;;4.50;;
69126;SDS011;56688;50.234;19.292;2022-08-19T10:03:48;9.00;;;4.50;;
69126;SDS011;56688;50.234;19.292;2022-08-19T10:06:18;8.10;;;4.20;;
69126;SDS011;56688;50.234;19.292;2022-08-19T10:09:06;10.30;;;4.60;;
69126;SDS011;56688;50.234;19.292;2022-08-19T10:11:39;12.70;;;5.20;;
69126;SDS011;56688;50.234;19.292;2022-08-19T10:14:18;7.60;;;4.30;;
69126;SDS011;56688;50.234;19.292;2022-08-19T10:16:49;10.20;;;4.90;;
69126;SDS011;56688;50.234;19.292;2022-08-19T10:19:19;11.20;;;4.70;;
69126;SDS011;56688;50.234;19.292;2022-08-19T10:21:51;9.00;;;4.60;;
69126;SDS011;56688;50.234;19.292;2022-08-19T10:24:19;11.80;;;5.00;;
69126;SDS011;56688;50.234;19.292;2022-08-19T10:26:47;16.30;;;6.00;;
69126;SDS011;56688;50.234;19.292;2022-08-19T10:29:24;11.40;;;5.20;;
69126;SDS011;56688;50.234;19.292;2022-08-19T10:31:59;6.70;;;5.30;;
69126;SDS011;56688;50.234;19.292;2022-08-19T10:34:29;10.00;;;5.10;;
69126;SDS011;56688;50.234;19.292;2022-08-19T10:36:57;19.70;;;5.40;;
69126;SDS011;56688;50.234;19.292;2022-08-19T10:39:27;6.90;;;4.50;;
69126;SDS011;56688;50.234;19.292;2022-08-19T10:41:56;11.30;;;4.90;;
69126;SDS011;56688;50.234;19.292;2022-08-19T10:44:24;9.00;;;4.90;;
69126;SDS011;56688;50.234;19.292;2022-08-19T10:46:58;9.60;;;4.60;;
69126;SDS011;56688;50.234;19.292;2022-08-19T10:49:25;7.30;;;4.40;;
69126;SDS011;56688;50.234;19.292;2022-08-19T10:51:55;10.30;;;4.50;;
69126;SDS011;56688;50.234;19.292;2022-08-19T10:54:58;8.10;;;4.30;;
69126;SDS011;56688;50.234;19.292;2022-08-19T11:00:29;10.50;;;4.70;;
69126;SDS011;56688;50.234;19.292;2022-08-19T11:03:02;10.20;;;4.30;;
69126;SDS011;56688;50.234;19.292;2022-08-19T11:05:29;6.80;;;4.00;;
69126;SDS011;56688;50.234;19.292;2022-08-19T11:08:05;11.10;;;4.20;;
69126;SDS011;56688;50.234;19.292;2022-08-19T11:10:51;12.60;;;4.20;;
69126;SDS011;56688;50.234;19.292;2022-08-19T11:13:22;11.60;;;4.40;;
69126;SDS011;56688;50.234;19.292;2022-08-19T11:15:58;10.70;;;4.30;;
69126;SDS011;56688;50.234;19.292;2022-08-19T11:18:33;16.40;;;4.80;;
69126;SDS011;56688;50.234;19.292;2022-08-19T11:21:05;12.30;;;4.50;;
69126;SDS011;56688;50.234;19.292;2022-08-19T11:23:33;8.10;;;4.40;;
69126;SDS011;56688;50.234;19.292;2022-08-19T11:26:00;11.10;;;4.70;;
69126;SDS011;56688;50.234;19.292;2022-08-19T11:28:28;10.80;;;4.50;;
69126;SDS011;56688;50.234;19.292;2022-08-19T11:30:56;11.50;;;4.40;;
69126;SDS011;56688;50.234;19.292;2022-08-19T11:33:23;10.60;;;4.20;;
69126;SDS011;56688;50.234;19.292;2022-08-19T11:35:53;7.60;;;4.30;;
69126;SDS011;56688;50.234;19.292;2022-08-19T11:38:20;6.80;;;4.10;;
69126;SDS011;56688;50.234;19.292;2022-08-19T11:40:53;7.70;;;4.50;;
69126;SDS011;56688;50.234;19.292;2022-08-19T11:43:22;8.30;;;4.30;;
69126;SDS011;56688;50.234;19.292;2022-08-19T11:45:49;8.70;;;4.50;;
69126;SDS011;56688;50.234;19.292;2022-08-19T11:48:17;9.40;;;4.50;;
69126;SDS011;56688;50.234;19.292;2022-08-19T11:50:49;9.50;;;4.40;;
69126;SDS011;56688;50.234;19.292;2022-08-19T11:53:18;11.30;;;4.50;;
69126;SDS011;56688;50.234;19.292;2022-08-19T11:55:47;7.70;;;4.40;;
69126;SDS011;56688;50.234;19.292;2022-08-19T11:58:15;10.00;;;4.30;;
69126;SDS011;56688;50.234;19.292;2022-08-19T12:00:44;8.90;;;4.10;;
69126;SDS011;56688;50.234;19.292;2022-08-19T12:03:12;12.40;;;3.80;;
69126;SDS011;56688;50.234;19.292;2022-08-19T12:05:40;11.00;;;4.00;;
69126;SDS011;56688;50.234;19.292;2022-08-19T12:08:09;11.80;;;4.10;;
69126;SDS011;56688;50.234;19.292;2022-08-19T12:10:41;12.90;;;4.00;;
69126;SDS011;56688;50.234;19.292;2022-08-19T12:13:15;22.70;;;5.20;;
69126;SDS011;56688;50.234;19.292;2022-08-19T12:15:45;25.60;;;4.40;;
69126;SDS011;56688;50.234;19.292;2022-08-19T12:18:31;13.50;;;3.70;;
69126;SDS011;56688;50.234;19.292;2022-08-19T12:20:58;11.60;;;3.50;;
69126;SDS011;56688;50.234;19.292;2022-08-19T12:23:27;7.60;;;3.70;;
69126;SDS011;56688;50.234;19.292;2022-08-19T12:25:54;9.10;;;3.90;;
69126;SDS011;56688;50.234;19.292;2022-08-19T12:28:24;8.60;;;3.70;;
69126;SDS011;56688;50.234;19.292;2022-08-19T12:30:52;9.10;;;4.00;;
69126;SDS011;56688;50.234;19.292;2022-08-19T12:33:19;10.30;;;3.70;;
69126;SDS011;56688;50.234;19.292;2022-08-19T12:35:51;9.20;;;3.90;;
69126;SDS011;56688;50.234;19.292;2022-08-19T12:38:18;9.60;;;4.20;;
69126;SDS011;56688;50.234;19.292;2022-08-19T12:40:47;12.30;;;3.70;;
69126;SDS011;56688;50.234;19.292;2022-08-19T12:43:14;11.70;;;3.90;;
69126;SDS011;56688;50.234;19.292;2022-08-19T12:45:43;10.10;;;3.90;;
69126;SDS011;56688;50.234;19.292;2022-08-19T12:48:12;10.50;;;4.30;;
69126;SDS011;56688;50.234;19.292;2022-08-19T12:51:00;8.70;;;3.80;;
69126;SDS011;56688;50.234;19.292;2022-08-19T12:53:32;12.20;;;4.00;;
69126;SDS011;56688;50.234;19.292;2022-08-19T12:56:02;10.90;;;3.90;;
69126;SDS011;56688;50.234;19.292;2022-08-19T12:58:47;11.30;;;3.70;;
69126;SDS011;56688;50.234;19.292;2022-08-19T13:01:17;12.10;;;3.50;;
69126;SDS011;56688;50.234;19.292;2022-08-19T13:03:48;9.70;;;3.60;;
69126;SDS011;56688;50.234;19.292;2022-08-19T13:06:16;13.30;;;3.50;;
69126;SDS011;56688;50.234;19.292;2022-08-19T13:08:47;11.70;;;3.70;;
69126;SDS011;56688;50.234;19.292;2022-08-19T13:11:15;9.10;;;3.60;;
69126;SDS011;56688;50.234;19.292;2022-08-19T13:13:44;10.90;;;3.20;;
69126;SDS011;56688;50.234;19.292;2022-08-19T13:16:14;8.60;;;3.10;;
69126;SDS011;56688;50.234;19.292;2022-08-19T13:18:43;9.70;;;3.50;;
69126;SDS011;56688;50.234;19.292;2022-08-19T13:21:13;10.70;;;3.80;;
69126;SDS011;56688;50.234;19.292;2022-08-19T13:23:41;9.10;;;3.30;;
69126;SDS011;56688;50.234;19.292;2022-08-19T13:26:09;10.90;;;3.80;;
69126;SDS011;56688;50.234;19.292;2022-08-19T13:28:38;10.10;;;3.20;;
69126;SDS011;56688;50.234;19.292;2022-08-19T13:31:22;13.20;;;3.60;;
69126;SDS011;56688;50.234;19.292;2022-08-19T13:34:07;12.80;;;3.90;;
69126;SDS011;56688;50.234;19.292;2022-08-19T13:36:35;13.60;;;3.70;;
69126;SDS011;56688;50.234;19.292;2022-08-19T13:39:03;11.10;;;3.70;;
69126;SDS011;56688;50.234;19.292;2022-08-19T13:41:31;12.40;;;3.60;;
69126;SDS011;56688;50.234;19.292;2022-08-19T13:43:58;10.80;;;3.30;;
69126;SDS011;56688;50.234;19.292;2022-08-19T13:46:24;11.30;;;3.50;;
69126;SDS011;56688;50.234;19.292;2022-08-19T13:48:52;12.70;;;3.60;;
69126;SDS011;56688;50.234;19.292;2022-08-19T13:51:19;10.10;;;3.60;;
69126;SDS011;56688;50.234;19.292;2022-08-19T13:53:46;15.30;;;3.70;;
69126;SDS011;56688;50.234;19.292;2022-08-19T13:56:15;13.90;;;3.90;;
69126;SDS011;56688;50.234;19.292;2022-08-19T13:58:51;16.30;;;3.80;;
69126;SDS011;56688;50.234;19.292;2022-08-19T14:01:20;11.90;;;4.00;;
69126;SDS011;56688;50.234;19.292;2022-08-19T14:03:50;13.90;;;4.50;;
69126;SDS011;56688;50.234;19.292;2022-08-19T14:06:17;12.30;;;3.80;;
69126;SDS011;56688;50.234;19.292;2022-08-19T14:08:45;13.80;;;3.80;;
69126;SDS011;56688;50.234;19.292;2022-08-19T14:11:12;12.30;;;4.10;;
69126;SDS011;56688;50.234;19.292;2022-08-19T14:13:40;14.20;;;4.20;;
69126;SDS011;56688;50.234;19.292;2022-08-19T14:16:08;9.30;;;3.60;;
69126;SDS011;56688;50.234;19.292;2022-08-19T14:18:37;13.90;;;4.00;;
69126;SDS011;56688;50.234;19.292;2022-08-19T14:21:05;9.90;;;3.80;;
69126;SDS011;56688;50.234;19.292;2022-08-19T14:23:33;12.70;;;4.60;;
69126;SDS011;56688;50.234;19.292;2022-08-19T14:26:04;11.70;;;4.20;;
69126;SDS011;56688;50.234;19.292;2022-08-19T14:28:33;12.00;;;4.10;;
69126;SDS011;56688;50.234;19.292;2022-08-19T14:31:00;14.20;;;4.60;;
69126;SDS011;56688;50.234;19.292;2022-08-19T14:33:27;10.40;;;4.00;;
69126;SDS011;56688;50.234;19.292;2022-08-19T14:35:56;15.00;;;4.30;;
69126;SDS011;56688;50.234;19.292;2022-08-19T14:38:25;12.70;;;4.30;;
69126;SDS011;56688;50.234;19.292;2022-08-19T14:43:43;13.40;;;4.60;;
69126;SDS011;56688;50.234;19.292;2022-08-19T14:46:14;16.20;;;5.40;;
69126;SDS011;56688;50.234;19.292;2022-08-19T14:48:42;10.10;;;5.00;;
69126;SDS011;56688;50.234;19.292;2022-08-19T14:51:09;14.20;;;5.20;;
69126;SDS011;56688;50.234;19.292;2022-08-19T14:53:36;12.70;;;6.30;;
69126;SDS011;56688;50.234;19.292;2022-08-19T14:56:08;12.80;;;6.70;;
69126;SDS011;56688;50.234;19.292;2022-08-19T15:01:04;11.90;;;5.30;;
69126;SDS011;56688;50.234;19.292;2022-08-19T15:03:31;11.70;;;5.20;;
69126;SDS011;56688;50.234;19.292;2022-08-19T15:05:59;9.80;;;5.10;;
69126;SDS011;56688;50.234;19.292;2022-08-19T15:08:28;15.20;;;7.40;;
69126;SDS011;56688;50.234;19.292;2022-08-19T15:10:57;9.00;;;4.80;;
69126;SDS011;56688;50.234;19.292;2022-08-19T15:13:25;9.60;;;4.70;;
69126;SDS011;56688;50.234;19.292;2022-08-19T15:15:54;13.60;;;5.70;;
69126;SDS011;56688;50.234;19.292;2022-08-19T15:18:21;9.90;;;4.70;;